TimeCST,TemperatureF,Dew PointF,Humidity,Sea Level PressureIn,VisibilityMPH,Wind Direction,Wind SpeedMPH,Gust SpeedMPH,PrecipitationIn,Events,Conditions,WindDirDegrees,DateUTC
12:53 AM,64.0,57.9,80,30.06,10.0,NNW,10.4,-,N/A,,Clear,340,2012-11-04 05:53:00
1:53 AM,62.1,57.0,84,30.06,10.0,West,3.5,-,N/A,,Clear,260,2012-11-04 06:53:00
1:53 AM,60.1,55.9,86,30.06,10.0,Calm,Calm,-,N/A,,Clear,0,2012-11-04 07:53:00
2:53 AM,59.0,55.0,87,30.07,10.0,NE,3.5,-,N/A,,Clear,40,2012-11-04 08:53:00
3:53 AM,59.0,55.9,90,30.09,10.0,NE,5.8,-,N/A,,Clear,50,2012-11-04 09:53:00
4:53 AM,57.0,55.0,93,30.08,10.0,North,3.5,-,N/A,,Clear,360,2012-11-04 10:53:00
5:53 AM,57.0,54.0,89,30.10,10.0,Calm,Calm,-,N/A,,Clear,0,2012-11-04 11:53:00
6:53 AM,57.0,53.1,87,30.12,10.0,Calm,Calm,-,N/A,,Clear,0,2012-11-04 12:53:00
7:53 AM,57.9,54.0,87,30.12,10.0,Calm,Calm,-,N/A,,Clear,0,2012-11-04 13:53:00
8:53 AM,62.1,53.1,72,30.12,10.0,ENE,5.8,-,N/A,,Clear,70,2012-11-04 14:53:00
9:53 AM,66.9,55.0,66,30.13,10.0,NE,4.6,-,N/A,,Clear,50,2012-11-04 15:53:00
10:53 AM,70.0,55.9,61,30.12,10.0,NNE,4.6,-,N/A,,Clear,30,2012-11-04 16:53:00
11:53 AM,73.0,55.9,55,30.10,10.0,NE,5.8,-,N/A,,Clear,40,2012-11-04 17:53:00
12:53 PM,75.0,57.9,55,30.08,10.0,ENE,6.9,-,N/A,,Clear,70,2012-11-04 18:53:00
1:53 PM,73.9,57.9,57,30.06,10.0,Variable,3.5,-,N/A,,Partly Cloudy,0,2012-11-04 19:53:00
2:53 PM,75.0,57.0,53,30.05,10.0,Variable,5.8,-,N/A,,Partly Cloudy,0,2012-11-04 20:53:00
3:53 PM,73.0,57.0,57,30.04,10.0,ENE,6.9,-,N/A,,Mostly Cloudy,60,2012-11-04 21:53:00
4:53 PM,70.0,57.0,63,30.05,10.0,East,6.9,-,N/A,,Mostly Cloudy,80,2012-11-04 22:53:00
5:53 PM,68.0,57.0,68,30.05,10.0,East,3.5,-,N/A,,Clear,80,2012-11-04 23:53:00
6:53 PM,64.9,57.0,75,30.07,10.0,NE,3.5,-,N/A,,Mostly Cloudy,40,2012-11-05 00:53:00
7:53 PM,64.9,57.9,78,30.08,9.0,NE,6.9,-,N/A,,Overcast,50,2012-11-05 01:53:00
8:53 PM,63.0,57.0,81,30.10,9.0,East,5.8,-,N/A,,Clear,80,2012-11-05 02:53:00
9:53 PM,61.0,55.9,83,30.09,9.0,ESE,5.8,-,N/A,,Clear,120,2012-11-05 03:53:00
10:53 PM,60.1,55.9,86,30.09,8.0,ESE,3.5,-,N/A,,Mostly Cloudy,120,2012-11-05 04:53:00